createdAt,value
2019-05-15T00:00:08.920Z,5.39
2019-05-15T00:02:38.856Z,5.43
2019-05-15T00:05:08.974Z,5.49
2019-05-15T00:07:39.179Z,5.45
2019-05-15T00:10:08.976Z,5.35
2019-05-15T00:12:39.581Z,5.38
2019-05-15T00:15:09.281Z,5.30
2019-05-15T00:17:39.404Z,5.30
2019-05-15T00:20:09.863Z,5.31
2019-05-15T00:22:39.103Z,5.32
2019-05-15T00:25:09.366Z,5.12
2019-05-15T00:27:40.634Z,5.07
2019-05-15T00:30:09.946Z,5.03
2019-05-15T00:32:39.307Z,5.00
2019-05-15T00:35:09.355Z,4.94
2019-05-15T00:37:38.848Z,4.95
2019-05-15T00:40:08.763Z,4.81
2019-05-15T00:42:38.597Z,4.73
2019-05-15T00:45:09.564Z,4.65
2019-05-15T00:47:39.748Z,4.65
2019-05-15T00:50:09.450Z,4.61
2019-05-15T00:52:39.282Z,4.35
2019-05-15T00:55:09.084Z,4.46
2019-05-15T00:57:39.327Z,4.40
2019-05-15T01:00:09.112Z,4.48
2019-05-15T01:02:38.931Z,4.41
2019-05-15T01:05:08.559Z,4.33
2019-05-15T01:07:39.269Z,4.39
2019-05-15T01:10:09.777Z,4.37
2019-05-15T01:12:40.974Z,4.25
2019-05-15T01:15:09.787Z,4.06
2019-05-15T01:17:38.994Z,4.23
2019-05-15T01:20:08.741Z,4.17
2019-05-15T01:22:39.297Z,4.07
2019-05-15T01:25:08.610Z,4.09
2019-05-15T01:27:38.564Z,4.07
2019-05-15T01:30:09.182Z,4.03
2019-05-15T01:32:39.585Z,4.04
2019-05-15T01:35:09.748Z,4.01
2019-05-15T01:37:39.058Z,4.08
2019-05-15T01:40:09.046Z,4.02
2019-05-15T01:42:38.962Z,4.03
2019-05-15T01:45:08.882Z,3.90
2019-05-15T01:47:38.949Z,3.99
2019-05-15T01:50:09.144Z,3.93
2019-05-15T01:52:38.930Z,3.82
2019-05-15T01:55:09.175Z,3.80
2019-05-15T01:57:38.530Z,3.78
2019-05-15T02:00:08.963Z,3.77
2019-05-15T02:02:39.008Z,3.66
2019-05-15T02:05:09.039Z,3.75
2019-05-15T02:07:39.184Z,3.58
2019-05-15T02:10:09.227Z,3.63
2019-05-15T02:12:39.082Z,3.61
2019-05-15T02:15:09.577Z,3.62
2019-05-15T02:17:39.300Z,3.59
2019-05-15T02:20:08.685Z,3.55
2019-05-15T02:22:42.357Z,3.51
2019-05-15T02:25:09.119Z,3.39
2019-05-15T02:27:39.201Z,3.41
2019-05-15T02:30:22.120Z,3.45
2019-05-15T02:32:40.138Z,3.42
2019-05-15T02:35:09.962Z,3.39
2019-05-15T02:37:41.006Z,3.41
2019-05-15T02:40:10.503Z,3.26
2019-05-15T02:42:40.382Z,3.26
2019-05-15T02:45:10.548Z,3.31
2019-05-15T02:47:40.013Z,3.31
2019-05-15T02:50:10.759Z,3.25
2019-05-15T02:52:44.549Z,3.35
2019-05-15T02:55:09.793Z,3.22
2019-05-15T02:57:39.595Z,3.12
2019-05-15T03:00:10.883Z,3.27
2019-05-15T03:02:41.220Z,3.25
2019-05-15T03:05:09.752Z,3.11
2019-05-15T03:07:40.353Z,3.13
2019-05-15T03:10:09.916Z,3.19
2019-05-15T03:12:40.805Z,3.15
2019-05-15T03:15:09.872Z,3.08
2019-05-15T03:17:40.216Z,3.14
2019-05-15T03:20:10.886Z,3.09
2019-05-15T03:22:40.750Z,3.08
2019-05-15T03:25:10.792Z,3.08
2019-05-15T03:27:39.992Z,3.11
2019-05-15T03:30:13.822Z,3.12
2019-05-15T03:32:46.526Z,3.11
2019-05-15T03:35:14.663Z,3.19
2019-05-15T03:37:40.498Z,3.25
2019-05-15T03:40:10.332Z,3.19
2019-05-15T03:42:39.813Z,3.25
2019-05-15T03:45:10.638Z,3.23
2019-05-15T03:47:40.686Z,3.21
2019-05-15T03:50:10.459Z,3.27
2019-05-15T03:52:39.876Z,3.26
2019-05-15T03:55:10.733Z,3.37
2019-05-15T03:57:40.289Z,3.37
2019-05-15T04:00:10.192Z,3.34
2019-05-15T04:02:39.706Z,3.36
2019-05-15T04:05:11.861Z,3.51
2019-05-15T04:07:39.895Z,3.52
2019-05-15T04:10:10.114Z,3.51
2019-05-15T04:12:40.646Z,3.65
2019-05-15T04:15:10.555Z,3.71
2019-05-15T04:17:40.337Z,3.86
2019-05-15T04:20:10.055Z,3.90
2019-05-15T04:22:39.940Z,4.11
2019-05-15T04:25:10.009Z,4.22
2019-05-15T04:27:41.519Z,4.25
2019-05-15T04:30:11.111Z,4.28
2019-05-15T04:32:40.557Z,4.40
2019-05-15T04:35:10.242Z,4.40
2019-05-15T04:37:40.551Z,4.52
2019-05-15T04:40:10.086Z,4.50
2019-05-15T04:42:39.740Z,4.73
2019-05-15T04:45:10.833Z,4.56
2019-05-15T04:47:40.133Z,4.55
2019-05-15T04:50:09.862Z,4.71
2019-05-15T04:52:39.351Z,4.53
2019-05-15T04:55:10.078Z,4.67
2019-05-15T04:57:40.095Z,4.73
2019-05-15T05:00:10.159Z,4.69
2019-05-15T05:02:39.913Z,4.87
2019-05-15T05:05:10.433Z,4.87
2019-05-15T05:07:39.829Z,5.10
2019-05-15T05:10:09.844Z,5.20
2019-05-15T05:12:41.610Z,5.31
2019-05-15T05:15:08.802Z,5.31
2019-05-15T05:17:39.103Z,5.36
2019-05-15T05:20:08.209Z,5.59
2019-05-15T05:22:39.232Z,5.51
2019-05-15T05:25:08.249Z,5.62
2019-05-15T05:27:38.392Z,5.59
2019-05-15T05:30:08.865Z,5.67
2019-05-15T05:32:38.902Z,5.89
2019-05-15T05:35:08.580Z,5.94
2019-05-15T05:37:39.011Z,6.12
2019-05-15T05:40:08.570Z,6.27
2019-05-15T05:42:38.901Z,6.38
2019-05-15T05:45:09.268Z,6.19
2019-05-15T05:47:38.972Z,6.21
2019-05-15T05:50:08.707Z,6.56
2019-05-15T05:52:39.063Z,6.56
2019-05-15T05:55:08.965Z,6.54
2019-05-15T05:57:38.244Z,6.71
2019-05-15T06:00:09.458Z,6.84
2019-05-15T06:02:47.421Z,6.98
2019-05-15T06:05:08.836Z,7.17
2019-05-15T06:07:38.702Z,7.20
2019-05-15T06:10:08.901Z,7.37
2019-05-15T06:12:39.009Z,7.51
2019-05-15T06:15:09.254Z,7.48
2019-05-15T06:17:39.116Z,7.43
2019-05-15T06:20:08.340Z,7.58
2019-05-15T06:22:38.687Z,7.83
2019-05-15T06:25:11.293Z,7.93
2019-05-15T06:27:38.972Z,7.80
2019-05-15T06:30:09.942Z,7.80
2019-05-15T06:32:39.758Z,7.91
2019-05-15T06:35:09.111Z,8.30
2019-05-15T06:37:39.645Z,8.34
2019-05-15T06:40:08.803Z,8.24
2019-05-15T06:42:39.769Z,8.31
2019-05-15T06:45:08.348Z,8.82
2019-05-15T06:47:39.169Z,8.96
2019-05-15T06:50:10.489Z,8.78
2019-05-15T06:52:39.356Z,8.89
2019-05-15T06:55:09.093Z,9.21
2019-05-15T06:57:39.693Z,9.39
2019-05-15T07:00:08.676Z,9.90
2019-05-15T07:02:38.310Z,10.67
2019-05-15T07:05:07.970Z,10.92
2019-05-15T07:07:38.536Z,10.64
2019-05-15T07:10:09.105Z,10.91
2019-05-15T07:12:39.201Z,10.54
2019-05-15T07:15:09.416Z,11.02
2019-05-15T07:17:39.162Z,11.16
2019-05-15T07:20:09.050Z,10.78
2019-05-15T07:22:40.801Z,10.46
2019-05-15T07:25:09.694Z,10.72
2019-05-15T07:27:39.137Z,10.47
2019-05-15T07:30:11.887Z,11.11
2019-05-15T07:32:40.028Z,11.35
2019-05-15T07:35:08.943Z,11.27
2019-05-15T07:37:38.781Z,11.39
2019-05-15T07:40:08.772Z,11.64
2019-05-15T07:42:38.680Z,11.47
2019-05-15T07:45:08.885Z,11.14
2019-05-15T07:47:38.620Z,11.13
2019-05-15T07:50:09.822Z,11.23
2019-05-15T07:52:39.837Z,11.87
2019-05-15T07:55:10.602Z,11.97
2019-05-15T07:57:39.805Z,12.03
2019-05-15T08:00:12.236Z,11.97
2019-05-15T08:02:40.839Z,11.52
2019-05-15T08:05:09.908Z,11.44
2019-05-15T08:07:39.143Z,11.30
2019-05-15T08:10:08.714Z,11.33
2019-05-15T08:12:39.240Z,11.31
2019-05-15T08:15:11.311Z,11.49
2019-05-15T08:17:59.146Z,11.71
2019-05-15T08:20:18.344Z,12.34
2019-05-15T08:22:48.964Z,12.08
2019-05-15T08:25:31.224Z,11.89
2019-05-15T08:27:48.480Z,12.23
2019-05-15T08:30:19.837Z,12.45
2019-05-15T08:32:51.431Z,12.08
2019-05-15T08:35:20.068Z,12.17
2019-05-15T08:37:50.620Z,12.57
2019-05-15T08:40:19.701Z,13.04
2019-05-15T08:42:56.306Z,12.53
2019-05-15T08:45:19.054Z,12.87
2019-05-15T08:47:49.198Z,12.40
2019-05-15T08:50:19.222Z,12.89
2019-05-15T08:52:48.704Z,13.07
2019-05-15T08:55:20.032Z,12.94
2019-05-15T08:57:55.556Z,13.13
2019-05-15T09:00:18.831Z,13.34
2019-05-15T09:02:48.842Z,13.43
2019-05-15T09:05:18.749Z,13.60
2019-05-15T09:07:48.653Z,13.07
2019-05-15T09:10:18.501Z,12.45
2019-05-15T09:12:47.243Z,12.99
2019-05-15T09:15:18.572Z,12.85
2019-05-15T09:17:48.869Z,13.34
2019-05-15T09:20:19.418Z,13.33
2019-05-15T09:22:49.059Z,13.55
2019-05-15T09:25:19.361Z,13.67
2019-05-15T09:27:48.866Z,13.41
2019-05-15T09:30:18.351Z,13.15
2019-05-15T09:32:48.481Z,13.25
2019-05-15T09:35:19.558Z,13.80
2019-05-15T09:37:48.926Z,14.80
2019-05-15T09:40:18.648Z,14.88
2019-05-15T09:42:48.726Z,14.03
2019-05-15T09:45:18.124Z,14.92
2019-05-15T09:47:48.356Z,13.81
2019-05-15T09:50:19.427Z,13.90
2019-05-15T09:52:50.145Z,14.31
2019-05-15T09:55:18.349Z,14.36
2019-05-15T09:57:48.889Z,14.53
2019-05-15T10:00:19.169Z,14.59
2019-05-15T10:02:48.806Z,13.55
2019-05-15T10:05:18.691Z,14.23
2019-05-15T10:07:47.652Z,13.97
2019-05-15T10:10:19.628Z,14.97
2019-05-15T10:12:49.454Z,14.66
2019-05-15T10:15:18.721Z,14.52
2019-05-15T10:17:50.983Z,14.22
2019-05-15T10:20:18.732Z,14.57
2019-05-15T10:22:48.385Z,14.97
2019-05-15T10:25:18.965Z,14.62
2019-05-15T10:27:48.872Z,14.77
2019-05-15T10:30:18.964Z,14.98
2019-05-15T10:32:48.823Z,14.76
2019-05-15T10:35:25.545Z,15.13
2019-05-15T10:37:50.640Z,14.48
2019-05-15T10:40:20.425Z,13.88
2019-05-15T10:42:49.719Z,14.97
2019-05-15T10:45:19.466Z,15.01
2019-05-15T10:47:49.551Z,14.75
2019-05-15T10:50:20.528Z,15.18
2019-05-15T10:52:49.136Z,14.73
2019-05-15T10:55:18.919Z,13.94
2019-05-15T10:57:47.622Z,14.59
2019-05-15T11:00:19.255Z,15.00
2019-05-15T11:02:48.948Z,14.79
2019-05-15T11:05:18.689Z,14.92
2019-05-15T11:07:48.231Z,15.40
2019-05-15T11:10:18.577Z,15.40
2019-05-15T11:12:47.356Z,15.10
2019-05-15T11:15:18.453Z,15.31
2019-05-15T11:17:48.986Z,15.19
2019-05-15T11:20:18.774Z,14.96
2019-05-15T11:22:50.061Z,14.11
2019-05-15T11:25:17.763Z,14.68
2019-05-15T11:27:48.422Z,15.74
2019-05-15T11:30:19.238Z,15.14
2019-05-15T11:32:48.622Z,14.65
2019-05-15T11:35:18.935Z,15.14
2019-05-15T11:37:55.652Z,14.39
2019-05-15T11:40:18.982Z,14.10
2019-05-15T11:42:48.737Z,14.90
2019-05-15T11:45:18.782Z,14.81
2019-05-15T11:47:48.273Z,14.72
2019-05-15T11:50:20.572Z,14.67
2019-05-15T11:52:49.183Z,14.73
2019-05-15T11:55:20.811Z,14.99
2019-05-15T11:57:53.532Z,14.72
2019-05-15T12:00:26.780Z,14.56
2019-05-15T12:02:51.910Z,14.69
2019-05-15T12:05:20.454Z,14.65
2019-05-15T12:07:49.081Z,14.82
2019-05-15T12:10:18.496Z,13.98
2019-05-15T12:12:49.674Z,14.69
2019-05-15T12:15:19.142Z,14.84
2019-05-15T12:17:48.636Z,14.73
2019-05-15T12:20:19.625Z,14.34
2019-05-15T12:22:50.073Z,14.38
2019-05-15T12:25:18.946Z,14.98
2019-05-15T12:27:49.051Z,14.52
2019-05-15T12:30:19.910Z,14.72
2019-05-15T12:32:49.323Z,14.78
2019-05-15T12:35:20.502Z,14.43
2019-05-15T12:37:48.198Z,14.49
2019-05-15T13:00:25.646Z,14.45
2019-05-15T13:02:54.212Z,14.00
2019-05-15T13:05:22.680Z,14.31
2019-05-15T13:07:51.184Z,14.57
2019-05-15T13:10:19.714Z,14.17
2019-05-15T13:12:59.578Z,14.09
2019-05-15T13:15:18.915Z,13.89
2019-05-15T13:17:52.935Z,14.48
2019-05-15T13:20:18.563Z,14.45
2019-05-15T13:25:18.671Z,14.52
2019-05-15T13:27:48.669Z,14.59
2019-05-15T13:30:18.409Z,14.99
2019-05-15T13:32:49.535Z,14.38
2019-05-15T13:35:18.428Z,14.29
2019-05-15T13:37:49.399Z,14.25
2019-05-15T13:40:18.640Z,13.92
2019-05-15T13:42:48.544Z,14.25
2019-05-15T13:45:18.277Z,14.13
2019-05-15T13:47:46.954Z,13.99
2019-05-15T13:50:15.501Z,13.70
2019-05-15T13:52:44.014Z,14.29
2019-05-15T13:55:12.562Z,13.88
2019-05-15T13:57:41.023Z,14.22
2019-05-15T14:00:10.550Z,13.78
2019-05-15T14:02:39.507Z,13.65
2019-05-15T14:05:09.456Z,13.31
2019-05-15T14:07:49.006Z,13.48
2019-05-15T14:10:09.744Z,13.07
2019-05-15T14:12:38.469Z,13.31
2019-05-15T14:15:10.020Z,12.84
2019-05-15T14:17:38.599Z,12.98
2019-05-15T14:20:09.348Z,12.82
2019-05-15T14:22:38.977Z,12.78
2019-05-15T14:25:09.591Z,12.96
2019-05-15T14:27:39.797Z,13.23
2019-05-15T14:30:10.536Z,13.00
2019-05-15T14:32:41.467Z,12.63
2019-05-15T14:35:10.041Z,13.03
2019-05-15T14:37:38.631Z,12.78
2019-05-15T14:40:09.260Z,12.71
2019-05-15T14:42:39.404Z,12.99
2019-05-15T14:45:09.057Z,12.93
2019-05-15T14:47:38.846Z,13.05
2019-05-15T14:50:09.992Z,12.91
2019-05-15T14:52:39.066Z,12.94
2019-05-15T14:55:08.356Z,12.99
2019-05-15T14:57:39.216Z,13.12
2019-05-15T15:00:09.195Z,13.18
2019-05-15T15:02:38.917Z,13.30
2019-05-15T15:05:09.538Z,13.33
2019-05-15T15:07:38.775Z,13.14
2019-05-15T15:10:08.361Z,13.02
2019-05-15T15:12:39.692Z,13.29
2019-05-15T15:15:09.777Z,13.49
2019-05-15T15:17:38.726Z,13.42
2019-05-15T15:20:10.686Z,13.38
2019-05-15T15:22:39.801Z,13.30
2019-05-15T15:25:09.791Z,13.50
2019-05-15T15:27:39.656Z,13.44
2019-05-15T15:30:09.724Z,13.12
2019-05-15T15:32:38.801Z,13.30
2019-05-15T15:35:08.824Z,13.25
2019-05-15T15:37:38.421Z,13.06
2019-05-15T15:40:08.606Z,13.08
2019-05-15T15:42:39.433Z,13.19
2019-05-15T15:45:10.585Z,13.10
2019-05-15T15:47:39.262Z,13.21
2019-05-15T15:50:09.484Z,13.44
2019-05-15T15:52:38.978Z,13.52
2019-05-15T15:55:09.075Z,13.47
2019-05-15T15:57:39.690Z,13.62
2019-05-15T16:00:09.869Z,13.39
2019-05-15T16:02:40.966Z,13.37
2019-05-15T16:05:10.605Z,13.10
2019-05-15T16:07:39.435Z,13.23
2019-05-15T16:10:08.710Z,13.30
2019-05-15T16:12:38.794Z,13.19
2019-05-15T16:15:08.951Z,13.24
2019-05-15T16:17:38.660Z,13.34
2019-05-15T16:20:09.109Z,13.14
2019-05-15T16:22:38.350Z,13.09
2019-05-15T16:25:10.458Z,13.26
2019-05-15T16:27:38.990Z,13.18
2019-05-15T16:30:08.666Z,13.03
2019-05-15T16:32:39.035Z,13.35
2019-05-15T16:35:10.195Z,13.30
2019-05-15T16:37:39.318Z,13.24
2019-05-15T16:40:09.304Z,12.98
2019-05-15T16:42:38.406Z,12.89
2019-05-15T16:45:10.439Z,12.94
2019-05-15T16:47:40.233Z,12.66
2019-05-15T16:50:10.625Z,12.78
2019-05-15T16:52:39.255Z,13.00
2019-05-15T16:55:10.063Z,12.70
2019-05-15T16:57:39.068Z,12.58
2019-05-15T17:00:10.116Z,12.67
2019-05-15T17:02:39.643Z,12.44
2019-05-15T17:05:09.587Z,12.46
2019-05-15T17:07:39.019Z,12.53
2019-05-15T17:10:08.511Z,12.62
2019-05-15T17:12:39.242Z,12.63
2019-05-15T17:15:09.457Z,12.42
2019-05-15T17:17:38.701Z,12.37
2019-05-15T17:20:09.736Z,12.25
2019-05-15T17:22:38.564Z,12.28
2019-05-15T17:25:09.395Z,12.25
2019-05-15T17:27:37.416Z,12.10
2019-05-15T17:30:08.964Z,12.09
2019-05-15T17:32:38.802Z,11.82
2019-05-15T17:35:09.761Z,11.63
2019-05-15T17:37:38.078Z,12.01
2019-05-15T17:40:07.656Z,11.66
2019-05-15T17:42:38.961Z,11.53
2019-05-15T17:45:10.563Z,11.71
2019-05-15T17:47:41.422Z,11.60
2019-05-15T17:50:10.532Z,11.68
2019-05-15T17:52:39.249Z,11.65
2019-05-15T17:55:11.177Z,11.54
2019-05-15T17:57:42.455Z,11.62
2019-05-15T18:00:12.707Z,11.37
2019-05-15T18:02:41.559Z,11.39
2019-05-15T18:05:10.627Z,11.48
2019-05-15T18:07:39.307Z,11.37
2019-05-15T18:10:08.762Z,11.46
2019-05-15T18:12:38.797Z,11.63
2019-05-15T18:15:09.058Z,11.41
2019-05-15T18:17:39.194Z,11.15
2019-05-15T18:20:10.387Z,11.18
2019-05-15T18:22:39.199Z,10.78
2019-05-15T18:25:08.976Z,10.80
2019-05-15T18:27:38.921Z,10.74
2019-05-15T18:30:09.453Z,10.80
2019-05-15T18:32:39.180Z,10.45
2019-05-15T18:35:08.691Z,10.36
2019-05-15T18:37:39.285Z,10.28
2019-05-15T18:40:10.027Z,10.50
2019-05-15T18:42:39.135Z,10.38
2019-05-15T18:45:09.046Z,10.37
2019-05-15T18:47:38.993Z,10.34
2019-05-15T18:50:12.646Z,10.39
2019-05-15T18:52:38.834Z,10.42
2019-05-15T18:55:08.132Z,10.30
2019-05-15T18:57:38.503Z,10.34
2019-05-15T19:00:08.962Z,10.39
2019-05-15T19:02:39.286Z,10.34
2019-05-15T19:05:08.289Z,10.24
2019-05-15T19:07:38.386Z,10.25
2019-05-15T19:10:10.413Z,9.91
2019-05-15T19:12:39.017Z,10.04
2019-05-15T19:15:09.481Z,10.12
2019-05-15T19:17:38.987Z,10.07
2019-05-15T19:20:08.585Z,10.26
2019-05-15T19:22:40.578Z,10.06
2019-05-15T19:25:08.873Z,10.12
2019-05-15T19:27:39.337Z,10.09
2019-05-15T19:30:08.659Z,10.12
2019-05-15T19:32:38.766Z,10.17
2019-05-15T19:35:08.578Z,10.13
2019-05-15T19:37:38.321Z,10.10
2019-05-15T19:40:07.544Z,10.04
2019-05-15T19:42:38.434Z,10.12
2019-05-15T19:45:08.729Z,10.02
2019-05-15T19:47:38.718Z,10.02
2019-05-15T19:50:09.311Z,9.93
2019-05-15T19:52:37.856Z,10.08
2019-05-15T19:55:08.914Z,9.95
2019-05-15T19:57:38.953Z,10.01
2019-05-15T20:00:11.585Z,10.02
2019-05-15T20:02:40.120Z,9.93
2019-05-15T20:05:09.329Z,10.04
2019-05-15T20:07:39.297Z,10.07
2019-05-15T20:10:08.933Z,9.84
2019-05-15T20:12:39.066Z,10.01
2019-05-15T20:15:09.197Z,10.09
2019-05-15T20:17:38.616Z,10.22
2019-05-15T20:20:08.928Z,9.83
2019-05-15T20:22:40.341Z,10.01
2019-05-15T20:25:08.597Z,10.17
2019-05-15T20:27:39.046Z,10.04
2019-05-15T20:30:08.996Z,9.82
2019-05-15T20:32:38.748Z,9.93
2019-05-15T20:35:09.035Z,10.07
2019-05-15T20:37:39.115Z,9.92
2019-05-15T20:40:09.322Z,9.99
2019-05-15T20:42:38.475Z,9.74
2019-05-15T20:45:12.063Z,9.94
2019-05-15T20:47:39.152Z,9.96
2019-05-15T20:50:09.347Z,10.00
2019-05-15T20:52:39.333Z,9.89
2019-05-15T20:55:08.769Z,9.90
2019-05-15T20:57:40.109Z,9.93
2019-05-15T21:00:09.217Z,9.86
2019-05-15T21:02:38.229Z,9.87
2019-05-15T21:05:08.816Z,9.90
2019-05-15T21:07:39.948Z,10.03
2019-05-15T21:10:08.555Z,9.92
2019-05-15T21:12:40.930Z,9.84
2019-05-15T21:15:08.792Z,9.85
2019-05-15T21:17:39.535Z,9.87
2019-05-15T21:20:09.453Z,9.93
2019-05-15T21:22:40.212Z,9.93
2019-05-15T21:25:10.635Z,9.99
2019-05-15T21:27:42.322Z,9.78
2019-05-15T21:30:09.707Z,9.77
2019-05-15T21:32:38.456Z,9.78
2019-05-15T21:35:09.070Z,9.78
2019-05-15T21:37:38.929Z,9.72
2019-05-15T21:40:09.305Z,9.72
2019-05-15T21:42:39.034Z,9.78
2019-05-15T21:45:14.220Z,9.66
2019-05-15T21:47:40.614Z,9.74
2019-05-15T21:50:09.438Z,9.85
2019-05-15T21:52:39.027Z,9.75
2019-05-15T21:55:09.650Z,9.70
2019-05-15T21:57:40.341Z,9.75
2019-05-15T22:00:20.911Z,9.78
2019-05-15T22:02:50.420Z,9.73
2019-05-15T22:05:19.221Z,9.69
2019-05-15T22:07:51.030Z,9.89
2019-05-15T22:10:19.453Z,9.74
2019-05-15T22:12:48.471Z,9.82
2019-05-15T22:15:19.048Z,10.07
2019-05-15T22:17:49.300Z,9.83
2019-05-15T22:20:18.784Z,9.72
2019-05-15T22:22:50.862Z,9.62
2019-05-15T22:25:19.270Z,9.87
2019-05-15T22:27:48.681Z,9.81
2019-05-15T22:30:18.157Z,9.76
2019-05-15T22:32:49.588Z,9.86
2019-05-15T22:35:18.807Z,9.80
2019-05-15T22:37:49.217Z,9.64
2019-05-15T22:40:18.481Z,9.69
2019-05-15T22:42:48.715Z,9.70
2019-05-15T22:45:19.085Z,9.78
2019-05-15T22:47:48.275Z,9.72
2019-05-15T22:50:18.915Z,9.75
2019-05-15T22:52:49.202Z,9.75
2019-05-15T22:55:18.401Z,9.71
2019-05-15T22:57:48.110Z,9.71
2019-05-15T23:00:18.683Z,9.70
2019-05-15T23:02:48.797Z,9.71
2019-05-15T23:05:27.881Z,9.62
2019-05-15T23:07:48.450Z,9.68
2019-05-15T23:10:17.954Z,9.76
2019-05-15T23:12:48.550Z,9.76
2019-05-15T23:15:18.902Z,9.68
2019-05-15T23:17:49.047Z,9.69
2019-05-15T23:20:17.945Z,9.65
2019-05-15T23:22:46.466Z,9.61
2019-05-15T23:25:15.126Z,9.48
2019-05-15T23:27:43.602Z,9.61
2019-05-15T23:30:14.544Z,9.33
2019-05-15T23:32:43.407Z,9.42
2019-05-15T23:35:11.922Z,9.07
2019-05-15T23:37:40.400Z,9.19
2019-05-15T23:40:09.176Z,8.97
2019-05-15T23:42:38.943Z,8.98
2019-05-15T23:45:08.147Z,9.05
2019-05-15T23:47:38.344Z,8.86
2019-05-15T23:50:07.270Z,8.84
2019-05-15T23:52:38.264Z,8.73
2019-05-15T23:55:08.559Z,8.85
2019-05-15T23:57:39.258Z,8.99
